sensor_id;sensor_type;location;lat;lon;timestamp;P1;durP1;ratioP1;P2;durP2;ratioP2
86110;SDS011;76766;52.874;11.218;2024-03-22T00:01:49;5.47;;;3.30;;
86110;SDS011;76766;52.874;11.218;2024-03-22T00:04:15;7.13;;;3.30;;
86110;SDS011;76766;52.874;11.218;2024-03-22T00:06:41;5.15;;;3.10;;
86110;SDS011;76766;52.874;11.218;2024-03-22T00:09:08;4.93;;;3.55;;
86110;SDS011;76766;52.874;11.218;2024-03-22T00:11:33;3.65;;;3.10;;
86110;SDS011;76766;52.874;11.218;2024-03-22T00:13:59;4.80;;;3.20;;
86110;SDS011;76766;52.874;11.218;2024-03-22T00:16:24;6.55;;;3.28;;
86110;SDS011;76766;52.874;11.218;2024-03-22T00:18:50;4.70;;;2.95;;
86110;SDS011;76766;52.874;11.218;2024-03-22T00:21:15;3.78;;;2.80;;
86110;SDS011;76766;52.874;11.218;2024-03-22T00:23:41;4.55;;;3.10;;
86110;SDS011;76766;52.874;11.218;2024-03-22T00:26:06;4.78;;;2.95;;
86110;SDS011;76766;52.874;11.218;2024-03-22T00:28:32;5.07;;;3.08;;
86110;SDS011;76766;52.874;11.218;2024-03-22T00:30:58;8.15;;;3.15;;
86110;SDS011;76766;52.874;11.218;2024-03-22T00:33:23;3.70;;;2.75;;
86110;SDS011;76766;52.874;11.218;2024-03-22T00:35:49;5.28;;;3.67;;
86110;SDS011;76766;52.874;11.218;2024-03-22T00:38:14;6.50;;;3.00;;
86110;SDS011;76766;52.874;11.218;2024-03-22T00:40:39;6.55;;;3.15;;
86110;SDS011;76766;52.874;11.218;2024-03-22T00:43:06;4.63;;;3.08;;
86110;SDS011;76766;52.874;11.218;2024-03-22T00:45:31;6.35;;;2.90;;
86110;SDS011;76766;52.874;11.218;2024-03-22T00:47:57;4.30;;;3.03;;
86110;SDS011;76766;52.874;11.218;2024-03-22T00:50:22;4.13;;;2.90;;
86110;SDS011;76766;52.874;11.218;2024-03-22T00:52:47;5.82;;;2.90;;
86110;SDS011;76766;52.874;11.218;2024-03-22T00:55:13;3.42;;;3.13;;
86110;SDS011;76766;52.874;11.218;2024-03-22T00:57:38;4.35;;;3.00;;
86110;SDS011;76766;52.874;11.218;2024-03-22T01:00:03;5.75;;;2.80;;
86110;SDS011;76766;52.874;11.218;2024-03-22T01:02:29;6.03;;;2.72;;
86110;SDS011;76766;52.874;11.218;2024-03-22T01:04:55;3.42;;;2.33;;
86110;SDS011;76766;52.874;11.218;2024-03-22T01:07:20;3.22;;;2.90;;
86110;SDS011;76766;52.874;11.218;2024-03-22T01:09:45;3.45;;;2.80;;
86110;SDS011;76766;52.874;11.218;2024-03-22T01:12:11;5.28;;;2.85;;
86110;SDS011;76766;52.874;11.218;2024-03-22T01:14:36;4.38;;;3.00;;
86110;SDS011;76766;52.874;11.218;2024-03-22T01:17:02;7.60;;;3.03;;
86110;SDS011;76766;52.874;11.218;2024-03-22T01:19:27;3.25;;;2.95;;
86110;SDS011;76766;52.874;11.218;2024-03-22T01:21:53;4.80;;;2.70;;
86110;SDS011;76766;52.874;11.218;2024-03-22T01:24:18;3.97;;;2.63;;
86110;SDS011;76766;52.874;11.218;2024-03-22T01:26:43;3.78;;;2.83;;
86110;SDS011;76766;52.874;11.218;2024-03-22T01:29:09;3.75;;;2.75;;
86110;SDS011;76766;52.874;11.218;2024-03-22T01:31:34;3.17;;;2.60;;
86110;SDS011;76766;52.874;11.218;2024-03-22T01:33:59;3.70;;;2.50;;
86110;SDS011;76766;52.874;11.218;2024-03-22T01:36:25;5.03;;;3.50;;
86110;SDS011;76766;52.874;11.218;2024-03-22T01:38:50;3.95;;;2.90;;
86110;SDS011;76766;52.874;11.218;2024-03-22T01:41:15;3.08;;;2.50;;
86110;SDS011;76766;52.874;11.218;2024-03-22T01:43:41;3.08;;;2.60;;
86110;SDS011;76766;52.874;11.218;2024-03-22T01:46:06;3.03;;;2.50;;
86110;SDS011;76766;52.874;11.218;2024-03-22T01:48:33;3.58;;;2.80;;
86110;SDS011;76766;52.874;11.218;2024-03-22T01:50:59;2.72;;;2.22;;
86110;SDS011;76766;52.874;11.218;2024-03-22T01:53:24;2.90;;;2.58;;
86110;SDS011;76766;52.874;11.218;2024-03-22T01:55:50;2.90;;;2.30;;
86110;SDS011;76766;52.874;11.218;2024-03-22T01:58:16;3.47;;;2.63;;
86110;SDS011;76766;52.874;11.218;2024-03-22T02:00:41;3.03;;;2.60;;
86110;SDS011;76766;52.874;11.218;2024-03-22T02:03:07;2.45;;;2.25;;
86110;SDS011;76766;52.874;11.218;2024-03-22T02:05:32;4.05;;;2.40;;
86110;SDS011;76766;52.874;11.218;2024-03-22T02:07:57;2.90;;;2.45;;
86110;SDS011;76766;52.874;11.218;2024-03-22T02:10:23;3.40;;;2.53;;
86110;SDS011;76766;52.874;11.218;2024-03-22T02:12:48;3.47;;;2.25;;
86110;SDS011;76766;52.874;11.218;2024-03-22T02:15:14;2.67;;;2.42;;
86110;SDS011;76766;52.874;11.218;2024-03-22T02:17:39;3.70;;;2.88;;
86110;SDS011;76766;52.874;11.218;2024-03-22T02:20:04;5.60;;;2.88;;
86110;SDS011;76766;52.874;11.218;2024-03-22T02:22:31;3.40;;;2.75;;
86110;SDS011;76766;52.874;11.218;2024-03-22T02:24:56;3.28;;;2.80;;
86110;SDS011;76766;52.874;11.218;2024-03-22T02:27:22;2.45;;;1.92;;
86110;SDS011;76766;52.874;11.218;2024-03-22T02:29:47;3.42;;;2.60;;
86110;SDS011;76766;52.874;11.218;2024-03-22T02:32:12;3.70;;;2.30;;
86110;SDS011;76766;52.874;11.218;2024-03-22T02:34:38;3.25;;;2.90;;
86110;SDS011;76766;52.874;11.218;2024-03-22T02:37:03;4.15;;;2.58;;
86110;SDS011;76766;52.874;11.218;2024-03-22T02:39:29;2.70;;;2.45;;
86110;SDS011;76766;52.874;11.218;2024-03-22T02:41:55;2.75;;;2.40;;
86110;SDS011;76766;52.874;11.218;2024-03-22T02:44:21;5.38;;;2.63;;
86110;SDS011;76766;52.874;11.218;2024-03-22T02:46:46;3.42;;;2.70;;
86110;SDS011;76766;52.874;11.218;2024-03-22T02:49:12;3.63;;;2.28;;
86110;SDS011;76766;52.874;11.218;2024-03-22T02:51:37;2.25;;;2.08;;
86110;SDS011;76766;52.874;11.218;2024-03-22T02:54:03;5.35;;;2.80;;
86110;SDS011;76766;52.874;11.218;2024-03-22T02:56:29;2.88;;;2.42;;
86110;SDS011;76766;52.874;11.218;2024-03-22T02:58:55;4.50;;;2.47;;
86110;SDS011;76766;52.874;11.218;2024-03-22T03:01:20;2.55;;;2.33;;
86110;SDS011;76766;52.874;11.218;2024-03-22T03:03:46;2.58;;;2.38;;
86110;SDS011;76766;52.874;11.218;2024-03-22T03:06:11;2.70;;;2.50;;
86110;SDS011;76766;52.874;11.218;2024-03-22T03:08:38;2.75;;;2.20;;
86110;SDS011;76766;52.874;11.218;2024-03-22T03:11:04;3.72;;;2.50;;
86110;SDS011;76766;52.874;11.218;2024-03-22T03:13:29;3.33;;;2.67;;
86110;SDS011;76766;52.874;11.218;2024-03-22T03:15:55;2.60;;;2.10;;
86110;SDS011;76766;52.874;11.218;2024-03-22T03:18:20;3.63;;;2.47;;
86110;SDS011;76766;52.874;11.218;2024-03-22T03:20:45;4.35;;;2.20;;
86110;SDS011;76766;52.874;11.218;2024-03-22T03:23:11;2.55;;;2.33;;
86110;SDS011;76766;52.874;11.218;2024-03-22T03:25:36;2.30;;;2.10;;
86110;SDS011;76766;52.874;11.218;2024-03-22T03:28:02;2.45;;;2.25;;
86110;SDS011;76766;52.874;11.218;2024-03-22T03:30:27;2.47;;;2.22;;
86110;SDS011;76766;52.874;11.218;2024-03-22T03:32:52;3.05;;;2.50;;
86110;SDS011;76766;52.874;11.218;2024-03-22T03:35:18;2.40;;;2.20;;
86110;SDS011;76766;52.874;11.218;2024-03-22T03:37:43;3.15;;;2.40;;
86110;SDS011;76766;52.874;11.218;2024-03-22T03:40:09;3.53;;;2.45;;
86110;SDS011;76766;52.874;11.218;2024-03-22T03:42:34;2.42;;;2.15;;
86110;SDS011;76766;52.874;11.218;2024-03-22T03:45:00;2.63;;;2.40;;
86110;SDS011;76766;52.874;11.218;2024-03-22T03:47:25;2.53;;;2.33;;
86110;SDS011;76766;52.874;11.218;2024-03-22T03:49:50;2.13;;;1.92;;
86110;SDS011;76766;52.874;11.218;2024-03-22T03:52:17;2.33;;;2.10;;
86110;SDS011;76766;52.874;11.218;2024-03-22T03:54:43;2.13;;;2.00;;
86110;SDS011;76766;52.874;11.218;2024-03-22T03:57:08;2.20;;;2.00;;
86110;SDS011;76766;52.874;11.218;2024-03-22T03:59:33;2.92;;;2.50;;
86110;SDS011;76766;52.874;11.218;2024-03-22T04:01:59;2.53;;;2.10;;
86110;SDS011;76766;52.874;11.218;2024-03-22T04:04:24;2.17;;;2.08;;
86110;SDS011;76766;52.874;11.218;2024-03-22T04:06:49;2.30;;;2.10;;
86110;SDS011;76766;52.874;11.218;2024-03-22T04:09:15;2.65;;;2.50;;
86110;SDS011;76766;52.874;11.218;2024-03-22T04:11:40;2.17;;;2.00;;
86110;SDS011;76766;52.874;11.218;2024-03-22T04:14:06;2.88;;;2.53;;
86110;SDS011;76766;52.874;11.218;2024-03-22T04:16:31;2.50;;;2.30;;
86110;SDS011;76766;52.874;11.218;2024-03-22T04:18:57;2.85;;;2.47;;
86110;SDS011;76766;52.874;11.218;2024-03-22T04:21:22;1.98;;;1.88;;
86110;SDS011;76766;52.874;11.218;2024-03-22T04:23:48;3.03;;;2.10;;
86110;SDS011;76766;52.874;11.218;2024-03-22T04:26:13;2.40;;;2.20;;
86110;SDS011;76766;52.874;11.218;2024-03-22T04:28:40;2.45;;;2.25;;
86110;SDS011;76766;52.874;11.218;2024-03-22T04:31:06;2.38;;;2.08;;
86110;SDS011;76766;52.874;11.218;2024-03-22T04:33:36;2.72;;;2.08;;
86110;SDS011;76766;52.874;11.218;2024-03-22T04:36:02;2.10;;;2.00;;
86110;SDS011;76766;52.874;11.218;2024-03-22T04:38:28;2.90;;;2.22;;
86110;SDS011;76766;52.874;11.218;2024-03-22T04:40:54;2.97;;;1.98;;
86110;SDS011;76766;52.874;11.218;2024-03-22T04:43:21;2.28;;;2.08;;
86110;SDS011;76766;52.874;11.218;2024-03-22T04:45:47;2.35;;;2.15;;
86110;SDS011;76766;52.874;11.218;2024-03-22T04:48:14;2.85;;;2.20;;
86110;SDS011;76766;52.874;11.218;2024-03-22T04:50:40;2.38;;;2.13;;
86110;SDS011;76766;52.874;11.218;2024-03-22T04:53:06;2.25;;;2.05;;
86110;SDS011;76766;52.874;11.218;2024-03-22T04:55:31;2.80;;;2.30;;
86110;SDS011;76766;52.874;11.218;2024-03-22T04:58:00;2.20;;;2.00;;
86110;SDS011;76766;52.874;11.218;2024-03-22T05:00:26;2.42;;;2.22;;
86110;SDS011;76766;52.874;11.218;2024-03-22T05:02:52;2.83;;;2.38;;
86110;SDS011;76766;52.874;11.218;2024-03-22T05:05:18;2.47;;;2.22;;
86110;SDS011;76766;52.874;11.218;2024-03-22T05:07:44;2.20;;;2.10;;
86110;SDS011;76766;52.874;11.218;2024-03-22T05:10:10;2.55;;;2.35;;
86110;SDS011;76766;52.874;11.218;2024-03-22T05:12:35;3.50;;;2.60;;
86110;SDS011;76766;52.874;11.218;2024-03-22T05:15:02;2.40;;;2.20;;
86110;SDS011;76766;52.874;11.218;2024-03-22T05:17:28;2.63;;;2.42;;
86110;SDS011;76766;52.874;11.218;2024-03-22T05:19:54;3.35;;;2.25;;
86110;SDS011;76766;52.874;11.218;2024-03-22T05:22:20;2.28;;;2.15;;
86110;SDS011;76766;52.874;11.218;2024-03-22T05:24:45;2.55;;;2.35;;
86110;SDS011;76766;52.874;11.218;2024-03-22T05:27:11;2.42;;;2.22;;
86110;SDS011;76766;52.874;11.218;2024-03-22T05:29:37;3.50;;;2.00;;
86110;SDS011;76766;52.874;11.218;2024-03-22T05:32:03;2.35;;;2.15;;
86110;SDS011;76766;52.874;11.218;2024-03-22T05:34:28;2.60;;;2.40;;
86110;SDS011;76766;52.874;11.218;2024-03-22T05:36:54;2.10;;;2.00;;
86110;SDS011;76766;52.874;11.218;2024-03-22T05:39:20;2.60;;;2.33;;
86110;SDS011;76766;52.874;11.218;2024-03-22T05:41:45;3.20;;;2.15;;
86110;SDS011;76766;52.874;11.218;2024-03-22T05:44:11;2.38;;;2.17;;
86110;SDS011;76766;52.874;11.218;2024-03-22T05:46:36;2.45;;;2.25;;
86110;SDS011;76766;52.874;11.218;2024-03-22T05:49:02;2.63;;;2.25;;
86110;SDS011;76766;52.874;11.218;2024-03-22T05:51:27;4.45;;;2.67;;
86110;SDS011;76766;52.874;11.218;2024-03-22T05:53:53;2.30;;;2.10;;
86110;SDS011;76766;52.874;11.218;2024-03-22T05:56:18;2.53;;;2.03;;
86110;SDS011;76766;52.874;11.218;2024-03-22T05:58:43;2.70;;;2.50;;
86110;SDS011;76766;52.874;11.218;2024-03-22T06:01:09;4.88;;;2.28;;
86110;SDS011;76766;52.874;11.218;2024-03-22T06:03:34;2.50;;;2.30;;
86110;SDS011;76766;52.874;11.218;2024-03-22T06:06:00;3.63;;;2.38;;
86110;SDS011;76766;52.874;11.218;2024-03-22T06:08:25;2.67;;;2.03;;
86110;SDS011;76766;52.874;11.218;2024-03-22T06:10:56;4.15;;;2.33;;
86110;SDS011;76766;52.874;11.218;2024-03-22T06:13:22;2.38;;;2.17;;
86110;SDS011;76766;52.874;11.218;2024-03-22T06:15:48;5.50;;;2.60;;
86110;SDS011;76766;52.874;11.218;2024-03-22T06:18:14;2.55;;;2.05;;
86110;SDS011;76766;52.874;11.218;2024-03-22T06:20:39;2.50;;;2.30;;
86110;SDS011;76766;52.874;11.218;2024-03-22T06:23:05;3.35;;;2.47;;
86110;SDS011;76766;52.874;11.218;2024-03-22T06:25:30;2.30;;;2.05;;
86110;SDS011;76766;52.874;11.218;2024-03-22T06:27:55;2.65;;;2.45;;
86110;SDS011;76766;52.874;11.218;2024-03-22T06:30:21;3.28;;;2.17;;
86110;SDS011;76766;52.874;11.218;2024-03-22T06:32:46;2.22;;;2.03;;
86110;SDS011;76766;52.874;11.218;2024-03-22T06:35:12;2.20;;;2.00;;
86110;SDS011;76766;52.874;11.218;2024-03-22T06:37:38;2.00;;;1.80;;
86110;SDS011;76766;52.874;11.218;2024-03-22T06:40:05;2.20;;;2.10;;
86110;SDS011;76766;52.874;11.218;2024-03-22T06:42:31;2.50;;;2.30;;
86110;SDS011;76766;52.874;11.218;2024-03-22T06:44:56;3.90;;;2.58;;
86110;SDS011;76766;52.874;11.218;2024-03-22T06:47:22;2.43;;;2.33;;
86110;SDS011;76766;52.874;11.218;2024-03-22T06:49:48;2.50;;;1.95;;
86110;SDS011;76766;52.874;11.218;2024-03-22T06:52:13;2.47;;;2.20;;
86110;SDS011;76766;52.874;11.218;2024-03-22T06:54:40;2.65;;;2.35;;
86110;SDS011;76766;52.874;11.218;2024-03-22T06:57:05;3.13;;;2.83;;
86110;SDS011;76766;52.874;11.218;2024-03-22T06:59:31;2.50;;;2.33;;
86110;SDS011;76766;52.874;11.218;2024-03-22T07:01:56;2.92;;;2.45;;
86110;SDS011;76766;52.874;11.218;2024-03-22T07:04:22;2.30;;;2.10;;
86110;SDS011;76766;52.874;11.218;2024-03-22T07:06:47;3.15;;;2.20;;
86110;SDS011;76766;52.874;11.218;2024-03-22T07:09:12;2.25;;;1.77;;
86110;SDS011;76766;52.874;11.218;2024-03-22T07:11:38;2.60;;;2.40;;
86110;SDS011;76766;52.874;11.218;2024-03-22T07:14:03;2.70;;;2.20;;
86110;SDS011;76766;52.874;11.218;2024-03-22T07:16:29;2.58;;;2.38;;
86110;SDS011;76766;52.874;11.218;2024-03-22T07:18:54;2.50;;;2.30;;
86110;SDS011;76766;52.874;11.218;2024-03-22T07:21:19;2.40;;;2.25;;
86110;SDS011;76766;52.874;11.218;2024-03-22T07:23:45;2.15;;;1.98;;
86110;SDS011;76766;52.874;11.218;2024-03-22T07:26:10;2.72;;;2.33;;
86110;SDS011;76766;52.874;11.218;2024-03-22T07:28:36;2.53;;;2.33;;
86110;SDS011;76766;52.874;11.218;2024-03-22T07:31:01;3.10;;;2.65;;
86110;SDS011;76766;52.874;11.218;2024-03-22T07:33:26;2.78;;;2.58;;
86110;SDS011;76766;52.874;11.218;2024-03-22T07:35:52;2.50;;;2.30;;
86110;SDS011;76766;52.874;11.218;2024-03-22T07:38:19;2.88;;;2.67;;
86110;SDS011;76766;52.874;11.218;2024-03-22T07:40:44;2.42;;;2.20;;
86110;SDS011;76766;52.874;11.218;2024-03-22T07:43:10;3.42;;;3.13;;
86110;SDS011;76766;52.874;11.218;2024-03-22T07:45:36;2.28;;;2.17;;
86110;SDS011;76766;52.874;11.218;2024-03-22T07:48:02;3.22;;;2.30;;
86110;SDS011;76766;52.874;11.218;2024-03-22T07:50:28;3.78;;;2.90;;
86110;SDS011;76766;52.874;11.218;2024-03-22T07:52:53;4.18;;;2.67;;
86110;SDS011;76766;52.874;11.218;2024-03-22T07:55:19;5.43;;;4.18;;
86110;SDS011;76766;52.874;11.218;2024-03-22T07:57:44;30.42;;;15.25;;
86110;SDS011;76766;52.874;11.218;2024-03-22T08:00:10;40.38;;;15.82;;
86110;SDS011;76766;52.874;11.218;2024-03-22T08:02:35;49.50;;;29.45;;
86110;SDS011;76766;52.874;11.218;2024-03-22T08:05:01;100.13;;;50.75;;
86110;SDS011;76766;52.874;11.218;2024-03-22T08:07:27;144.63;;;58.15;;
86110;SDS011;76766;52.874;11.218;2024-03-22T08:09:52;113.43;;;46.85;;
86110;SDS011;76766;52.874;11.218;2024-03-22T08:12:18;105.05;;;38.67;;
86110;SDS011;76766;52.874;11.218;2024-03-22T08:14:44;87.35;;;32.92;;
86110;SDS011;76766;52.874;11.218;2024-03-22T08:17:10;94.65;;;36.67;;
86110;SDS011;76766;52.874;11.218;2024-03-22T08:19:36;134.25;;;49.25;;
86110;SDS011;76766;52.874;11.218;2024-03-22T08:22:03;103.55;;;39.63;;
86110;SDS011;76766;52.874;11.218;2024-03-22T08:24:29;85.82;;;34.70;;
86110;SDS011;76766;52.874;11.218;2024-03-22T08:26:54;47.33;;;20.52;;
86110;SDS011;76766;52.874;11.218;2024-03-22T08:29:20;58.13;;;25.77;;
86110;SDS011;76766;52.874;11.218;2024-03-22T08:31:46;193.88;;;75.88;;
86110;SDS011;76766;52.874;11.218;2024-03-22T08:34:11;295.90;;;103.25;;
86110;SDS011;76766;52.874;11.218;2024-03-22T08:36:37;278.13;;;95.90;;
86110;SDS011;76766;52.874;11.218;2024-03-22T08:39:02;369.50;;;127.82;;
86110;SDS011;76766;52.874;11.218;2024-03-22T08:41:28;399.60;;;132.88;;
86110;SDS011;76766;52.874;11.218;2024-03-22T08:43:53;452.50;;;158.98;;
86110;SDS011;76766;52.874;11.218;2024-03-22T08:46:19;397.20;;;129.77;;
86110;SDS011;76766;52.874;11.218;2024-03-22T08:48:46;519.20;;;196.85;;
86110;SDS011;76766;52.874;11.218;2024-03-22T08:51:11;491.40;;;193.77;;
86110;SDS011;76766;52.874;11.218;2024-03-22T08:53:37;464.85;;;171.88;;
86110;SDS011;76766;52.874;11.218;2024-03-22T08:56:02;391.23;;;136.40;;
86110;SDS011;76766;52.874;11.218;2024-03-22T08:58:28;335.25;;;118.63;;
86110;SDS011;76766;52.874;11.218;2024-03-22T09:00:54;354.20;;;116.60;;
86110;SDS011;76766;52.874;11.218;2024-03-22T09:03:19;291.30;;;100.22;;
86110;SDS011;76766;52.874;11.218;2024-03-22T09:05:46;297.23;;;107.20;;
86110;SDS011;76766;52.874;11.218;2024-03-22T09:08:11;269.55;;;89.60;;
86110;SDS011;76766;52.874;11.218;2024-03-22T09:10:37;250.32;;;87.03;;
86110;SDS011;76766;52.874;11.218;2024-03-22T09:13:02;241.52;;;86.65;;
86110;SDS011;76766;52.874;11.218;2024-03-22T09:15:28;225.80;;;86.63;;
86110;SDS011;76766;52.874;11.218;2024-03-22T09:17:53;198.18;;;70.25;;
86110;SDS011;76766;52.874;11.218;2024-03-22T09:20:19;193.02;;;67.78;;
86110;SDS011;76766;52.874;11.218;2024-03-22T09:22:44;275.20;;;119.78;;
86110;SDS011;76766;52.874;11.218;2024-03-22T09:25:09;181.25;;;64.72;;
86110;SDS011;76766;52.874;11.218;2024-03-22T09:27:35;185.05;;;74.05;;
86110;SDS011;76766;52.874;11.218;2024-03-22T09:30:00;254.32;;;106.78;;
86110;SDS011;76766;52.874;11.218;2024-03-22T09:32:26;309.90;;;133.35;;
86110;SDS011;76766;52.874;11.218;2024-03-22T09:34:52;214.10;;;88.82;;
86110;SDS011;76766;52.874;11.218;2024-03-22T09:37:17;247.15;;;102.20;;
86110;SDS011;76766;52.874;11.218;2024-03-22T09:39:43;345.48;;;162.27;;
86110;SDS011;76766;52.874;11.218;2024-03-22T09:42:09;284.77;;;116.20;;
86110;SDS011;76766;52.874;11.218;2024-03-22T09:44:48;215.57;;;92.25;;
86110;SDS011;76766;52.874;11.218;2024-03-22T09:47:15;334.65;;;144.90;;
86110;SDS011;76766;52.874;11.218;2024-03-22T09:49:42;297.70;;;132.65;;
86110;SDS011;76766;52.874;11.218;2024-03-22T09:52:12;267.13;;;127.28;;
86110;SDS011;76766;52.874;11.218;2024-03-22T09:54:40;218.20;;;96.05;;
86110;SDS011;76766;52.874;11.218;2024-03-22T09:57:07;206.07;;;89.28;;
86110;SDS011;76766;52.874;11.218;2024-03-22T09:59:36;275.60;;;122.72;;
86110;SDS011;76766;52.874;11.218;2024-03-22T10:02:02;186.18;;;76.20;;
86110;SDS011;76766;52.874;11.218;2024-03-22T10:04:28;164.13;;;70.55;;
86110;SDS011;76766;52.874;11.218;2024-03-22T10:06:54;162.85;;;69.15;;
86110;SDS011;76766;52.874;11.218;2024-03-22T10:09:19;155.32;;;65.10;;
86110;SDS011;76766;52.874;11.218;2024-03-22T10:11:53;145.35;;;58.92;;
86110;SDS011;76766;52.874;11.218;2024-03-22T10:14:19;144.95;;;61.35;;
86110;SDS011;76766;52.874;11.218;2024-03-22T10:16:44;141.90;;;60.00;;
86110;SDS011;76766;52.874;11.218;2024-03-22T10:19:10;129.95;;;56.72;;
86110;SDS011;76766;52.874;11.218;2024-03-22T10:21:35;133.27;;;57.78;;
86110;SDS011;76766;52.874;11.218;2024-03-22T10:24:01;133.40;;;54.47;;
86110;SDS011;76766;52.874;11.218;2024-03-22T10:26:26;123.38;;;55.90;;
86110;SDS011;76766;52.874;11.218;2024-03-22T10:28:51;116.03;;;53.80;;
86110;SDS011;76766;52.874;11.218;2024-03-22T10:31:17;115.07;;;50.78;;
86110;SDS011;76766;52.874;11.218;2024-03-22T10:33:45;112.07;;;51.00;;
86110;SDS011;76766;52.874;11.218;2024-03-22T10:36:11;108.85;;;49.40;;
86110;SDS011;76766;52.874;11.218;2024-03-22T10:38:38;120.07;;;51.75;;
86110;SDS011;76766;52.874;11.218;2024-03-22T10:41:04;108.13;;;48.33;;
86110;SDS011;76766;52.874;11.218;2024-03-22T10:43:30;103.60;;;48.13;;
86110;SDS011;76766;52.874;11.218;2024-03-22T10:45:56;108.70;;;46.83;;
86110;SDS011;76766;52.874;11.218;2024-03-22T10:48:27;106.88;;;46.88;;
86110;SDS011;76766;52.874;11.218;2024-03-22T10:50:55;98.32;;;42.70;;
86110;SDS011;76766;52.874;11.218;2024-03-22T10:53:24;96.88;;;42.83;;
86110;SDS011;76766;52.874;11.218;2024-03-22T10:55:52;99.82;;;46.10;;
86110;SDS011;76766;52.874;11.218;2024-03-22T10:58:21;90.57;;;43.22;;
86110;SDS011;76766;52.874;11.218;2024-03-22T11:00:50;92.60;;;42.08;;
86110;SDS011;76766;52.874;11.218;2024-03-22T11:03:19;93.57;;;44.78;;
86110;SDS011;76766;52.874;11.218;2024-03-22T11:05:46;92.47;;;41.72;;
86110;SDS011;76766;52.874;11.218;2024-03-22T11:08:12;86.57;;;39.53;;
86110;SDS011;76766;52.874;11.218;2024-03-22T11:10:38;87.18;;;41.05;;
86110;SDS011;76766;52.874;11.218;2024-03-22T11:13:04;91.57;;;40.38;;
86110;SDS011;76766;52.874;11.218;2024-03-22T11:15:32;92.57;;;41.47;;
86110;SDS011;76766;52.874;11.218;2024-03-22T11:17:58;78.85;;;39.75;;
86110;SDS011;76766;52.874;11.218;2024-03-22T11:20:24;62.83;;;32.50;;
86110;SDS011;76766;52.874;11.218;2024-03-22T11:22:52;65.10;;;33.22;;
86110;SDS011;76766;52.874;11.218;2024-03-22T11:25:18;61.72;;;31.85;;
86110;SDS011;76766;52.874;11.218;2024-03-22T11:27:44;70.97;;;31.88;;
86110;SDS011;76766;52.874;11.218;2024-03-22T11:30:10;62.83;;;30.52;;
86110;SDS011;76766;52.874;11.218;2024-03-22T11:32:35;64.03;;;31.77;;
86110;SDS011;76766;52.874;11.218;2024-03-22T11:35:12;74.38;;;37.13;;
86110;SDS011;76766;52.874;11.218;2024-03-22T11:37:38;65.97;;;32.33;;
86110;SDS011;76766;52.874;11.218;2024-03-22T11:40:05;62.47;;;30.35;;
86110;SDS011;76766;52.874;11.218;2024-03-22T11:42:32;58.70;;;28.83;;
86110;SDS011;76766;52.874;11.218;2024-03-22T11:44:59;57.20;;;29.80;;
86110;SDS011;76766;52.874;11.218;2024-03-22T11:47:24;69.15;;;29.80;;
86110;SDS011;76766;52.874;11.218;2024-03-22T11:49:50;62.42;;;28.63;;
86110;SDS011;76766;52.874;11.218;2024-03-22T11:52:15;58.42;;;28.00;;
86110;SDS011;76766;52.874;11.218;2024-03-22T11:54:41;53.53;;;27.48;;
86110;SDS011;76766;52.874;11.218;2024-03-22T11:57:08;58.63;;;29.58;;
86110;SDS011;76766;52.874;11.218;2024-03-22T11:59:34;62.17;;;30.45;;
86110;SDS011;76766;52.874;11.218;2024-03-22T12:01:59;65.03;;;34.10;;
86110;SDS011;76766;52.874;11.218;2024-03-22T12:04:24;80.03;;;41.58;;
86110;SDS011;76766;52.874;11.218;2024-03-22T12:06:50;90.05;;;40.75;;
86110;SDS011;76766;52.874;11.218;2024-03-22T12:09:15;102.03;;;47.25;;
86110;SDS011;76766;52.874;11.218;2024-03-22T12:11:41;93.90;;;47.72;;
86110;SDS011;76766;52.874;11.218;2024-03-22T12:14:06;109.68;;;51.95;;
86110;SDS011;76766;52.874;11.218;2024-03-22T12:16:32;89.35;;;45.35;;
86110;SDS011;76766;52.874;11.218;2024-03-22T12:18:57;123.50;;;59.05;;
86110;SDS011;76766;52.874;11.218;2024-03-22T12:21:23;89.65;;;44.95;;
86110;SDS011;76766;52.874;11.218;2024-03-22T12:23:49;63.75;;;31.85;;
86110;SDS011;76766;52.874;11.218;2024-03-22T12:26:14;60.22;;;31.48;;
86110;SDS011;76766;52.874;11.218;2024-03-22T12:28:40;177.15;;;88.60;;
86110;SDS011;76766;52.874;11.218;2024-03-22T12:31:05;257.55;;;107.35;;
86110;SDS011;76766;52.874;11.218;2024-03-22T12:33:33;474.10;;;228.90;;
86110;SDS011;76766;52.874;11.218;2024-03-22T12:35:58;547.95;;;246.68;;
86110;SDS011;76766;52.874;11.218;2024-03-22T12:38:23;489.23;;;221.37;;
86110;SDS011;76766;52.874;11.218;2024-03-22T12:40:49;502.95;;;271.67;;
86110;SDS011;76766;52.874;11.218;2024-03-22T12:43:15;413.67;;;135.35;;
86110;SDS011;76766;52.874;11.218;2024-03-22T12:45:40;292.25;;;89.38;;
86110;SDS011;76766;52.874;11.218;2024-03-22T12:48:05;232.73;;;69.00;;
86110;SDS011;76766;52.874;11.218;2024-03-22T12:50:31;193.13;;;65.57;;
86110;SDS011;76766;52.874;11.218;2024-03-22T12:52:56;232.00;;;68.93;;
86110;SDS011;76766;52.874;11.218;2024-03-22T12:55:22;240.30;;;87.05;;
86110;SDS011;76766;52.874;11.218;2024-03-22T12:57:47;196.32;;;62.78;;
86110;SDS011;76766;52.874;11.218;2024-03-22T13:00:13;185.98;;;55.83;;
86110;SDS011;76766;52.874;11.218;2024-03-22T13:05:08;155.93;;;50.07;;
86110;SDS011;76766;52.874;11.218;2024-03-22T13:07:34;143.18;;;44.95;;
86110;SDS011;76766;52.874;11.218;2024-03-22T13:10:01;122.75;;;45.53;;
86110;SDS011;76766;52.874;11.218;2024-03-22T13:12:27;113.00;;;41.95;;
86110;SDS011;76766;52.874;11.218;2024-03-22T13:14:53;104.03;;;39.60;;
86110;SDS011;76766;52.874;11.218;2024-03-22T13:17:19;103.57;;;39.25;;
86110;SDS011;76766;52.874;11.218;2024-03-22T13:19:45;96.18;;;34.47;;
86110;SDS011;76766;52.874;11.218;2024-03-22T13:22:11;107.55;;;40.20;;
86110;SDS011;76766;52.874;11.218;2024-03-22T13:24:37;102.75;;;38.88;;
86110;SDS011;76766;52.874;11.218;2024-03-22T13:27:03;257.95;;;96.88;;
86110;SDS011;76766;52.874;11.218;2024-03-22T13:29:28;120.25;;;45.83;;
86110;SDS011;76766;52.874;11.218;2024-03-22T13:31:54;417.20;;;190.50;;
86110;SDS011;76766;52.874;11.218;2024-03-22T13:34:20;220.02;;;86.50;;
86110;SDS011;76766;52.874;11.218;2024-03-22T13:36:45;186.30;;;63.65;;
86110;SDS011;76766;52.874;11.218;2024-03-22T13:39:11;197.13;;;65.50;;
86110;SDS011;76766;52.874;11.218;2024-03-22T13:41:40;279.85;;;95.80;;
86110;SDS011;76766;52.874;11.218;2024-03-22T13:44:06;162.60;;;50.83;;
86110;SDS011;76766;52.874;11.218;2024-03-22T13:46:33;207.70;;;63.35;;
86110;SDS011;76766;52.874;11.218;2024-03-22T13:49:01;375.75;;;170.32;;
86110;SDS011;76766;52.874;11.218;2024-03-22T13:51:27;237.20;;;87.65;;
86110;SDS011;76766;52.874;11.218;2024-03-22T13:53:53;161.65;;;54.25;;
86110;SDS011;76766;52.874;11.218;2024-03-22T13:56:18;228.32;;;70.32;;
86110;SDS011;76766;52.874;11.218;2024-03-22T13:58:43;185.13;;;54.95;;
86110;SDS011;76766;52.874;11.218;2024-03-22T14:01:09;146.60;;;46.13;;
86110;SDS011;76766;52.874;11.218;2024-03-22T14:03:36;582.65;;;298.13;;
86110;SDS011;76766;52.874;11.218;2024-03-22T14:06:01;158.15;;;51.15;;
86110;SDS011;76766;52.874;11.218;2024-03-22T14:08:28;129.38;;;42.30;;
86110;SDS011;76766;52.874;11.218;2024-03-22T14:10:54;123.22;;;43.50;;
86110;SDS011;76766;52.874;11.218;2024-03-22T14:13:19;120.05;;;42.55;;